Time;durP1;ratioP1;P1;durP2;ratioP2;P2;SDS_P1;SDS_P2;PMS_P1;PMS_P2;Temp;Humidity;BMP_temperature;BMP_pressure;BME280_temperature;BME280_humidity;BME280_pressure;Samples;Min_cycle;Max_cycle;Signal;HPM_P1;HPM_P2
2024/04/11 00:00:25;;;;;;;0.40;0.10;;;12.00;99.90;;;;;;4938201;29;20047;-89
2024/04/11 00:02:52;;;;;;;0.45;0.03;;;12.00;99.90;;;;;;4922858;29;20179;-89
2024/04/11 00:05:23;;;;;;;0.22;0.10;;;11.90;99.90;;;;;;4939279;29;20114;-90
2024/04/11 00:07:49;;;;;;;0.50;0.03;;;11.90;99.90;;;;;;4937783;29;20082;-91
2024/04/11 00:10:18;;;;;;;1.00;0.30;;;12.00;99.90;;;;;;4937811;29;20035;-90
2024/04/11 00:12:44;;;;;;;0.10;0.10;;;11.90;99.90;;;;;;4938680;29;20027;-90
2024/04/11 00:15:13;;;;;;;0.57;0.10;;;11.90;99.90;;;;;;4921829;29;20056;-90
2024/04/11 00:17:41;;;;;;;0.55;0.03;;;11.90;99.90;;;;;;4936744;29;20043;-89
2024/04/11 00:20:08;;;;;;;0.70;0.10;;;11.90;99.90;;;;;;4936737;29;20035;-90
2024/04/11 00:22:34;;;;;;;0.10;0.10;;;11.90;99.90;;;;;;4937117;29;20035;-90
2024/04/11 00:25:02;;;;;;;0.80;0.10;;;11.90;99.90;;;;;;4921581;29;20054;-90
2024/04/11 00:27:28;;;;;;;0.80;0.20;;;11.90;99.90;;;;;;4937825;29;20032;-90
2024/04/11 00:29:54;;;;;;;0.08;0.08;;;11.90;99.90;;;;;;4944137;29;20039;-90
2024/04/11 00:32:22;;;;;;;0.25;0.08;;;11.90;99.90;;;;;;4948331;29;20504;-89
2024/04/11 00:34:49;;;;;;;0.10;0.10;;;11.90;99.90;;;;;;4947664;29;20024;-90
2024/04/11 00:37:15;;;;;;;0.10;0.00;;;11.90;99.90;;;;;;4922451;29;20060;-89
2024/04/11 00:39:43;;;;;;;0.00;0.00;;;11.90;99.90;;;;;;4935995;29;20541;-89
2024/04/11 00:42:10;;;;;;;0.20;0.10;;;11.90;99.90;;;;;;4920805;29;20134;-89
2024/04/11 00:44:37;;;;;;;0.10;0.10;;;11.90;99.90;;;;;;4921078;29;20134;-90
2024/04/11 00:47:09;;;;;;;0.17;0.17;;;11.90;99.90;;;;;;4938101;29;20381;-89
2024/04/11 00:49:39;;;;;;;1.65;0.17;;;11.90;99.90;;;;;;4920831;29;20114;-89
2024/04/11 00:52:07;;;;;;;;;;;11.90;99.90;;;;;;4937060;29;20384;-89
2024/04/11 00:54:33;;;;;;;0.10;0.10;;;11.90;99.90;;;;;;4935815;29;19911;-89
2024/04/11 00:57:08;;;;;;;0.47;0.15;;;11.90;99.90;;;;;;4936179;29;20028;-88
2024/04/11 00:59:40;;;;;;;0.00;0.00;;;11.80;99.90;;;;;;4936286;29;20505;-89
2024/04/11 01:02:08;;;;;;;0.35;0.10;;;11.90;99.90;;;;;;4936480;29;20034;-91
2024/04/11 01:04:36;;;;;;;0.05;0.03;;;11.80;99.90;;;;;;4920466;29;20119;-89
2024/04/11 01:07:10;;;;;;;0.10;0.10;;;11.80;99.90;;;;;;4920545;29;20485;-90
2024/04/11 01:09:48;;;;;;;0.10;0.10;;;11.80;99.90;;;;;;4936480;29;20023;-89
2024/04/11 01:12:26;;;;;;;0.10;0.10;;;11.80;99.90;;;;;;4923776;29;20036;-89
2024/04/11 01:14:52;;;;;;;2.17;0.20;;;11.70;99.90;;;;;;4920839;29;20044;-89
2024/04/11 01:17:24;;;;;;;0.10;0.10;;;11.70;99.90;;;;;;4936363;29;20051;-89
2024/04/11 01:19:58;;;;;;;1.35;0.10;;;11.70;99.90;;;;;;4937494;29;20043;-90
2024/04/11 01:22:35;;;;;;;0.50;0.20;;;11.60;99.90;;;;;;4936123;29;20024;-90
2024/04/11 01:25:29;;;;;;;0.52;0.20;;;11.60;99.90;;;;;;4935979;29;20027;-89
2024/04/11 01:27:55;;;;;;;0.38;0.20;;;11.60;99.90;;;;;;4917087;29;20040;-91
2024/04/11 01:30:21;;;;;;;0.60;0.30;;;11.60;99.90;;;;;;4920007;29;20032;-90
2024/04/11 01:32:50;;;;;;;0.40;0.22;;;11.60;99.90;;;;;;4935766;29;20035;-89
2024/04/11 01:35:20;;;;;;;0.47;0.30;;;11.60;99.90;;;;;;4935748;29;20020;-89
2024/04/11 01:37:58;;;;;;;0.55;0.20;;;11.50;99.90;;;;;;4935909;29;20042;-90
2024/04/11 01:40:41;;;;;;;0.70;0.20;;;11.60;99.90;;;;;;4936529;29;20039;-89
2024/04/11 01:43:09;;;;;;;0.75;0.30;;;11.60;99.90;;;;;;4935376;29;20031;-89
2024/04/11 01:45:40;;;;;;;0.40;0.40;;;11.60;99.90;;;;;;4935286;29;20489;-89
2024/04/11 01:48:17;;;;;;;;;;;11.60;99.90;;;;;;4935918;29;20051;-90
2024/04/11 01:50:48;;;;;;;0.95;0.43;;;11.60;99.90;;;;;;4935487;29;19913;-89
2024/04/11 01:53:17;;;;;;;0.50;0.45;;;11.60;99.90;;;;;;4919402;29;20115;-90
2024/04/11 01:55:59;;;;;;;0.20;0.20;;;11.60;99.90;;;;;;4936656;29;20023;-90
2024/04/11 01:58:48;;;;;;;0.30;0.30;;;11.60;99.90;;;;;;4905827;29;20142;-91
2024/04/11 02:01:19;;;;;;;0.45;0.40;;;11.70;99.90;;;;;;4935930;29;20031;-89
2024/04/11 02:03:47;;;;;;;0.85;0.47;;;11.70;99.90;;;;;;4919465;29;20035;-89
2024/04/11 02:06:20;;;;;;;0.35;0.20;;;11.70;99.90;;;;;;4919760;29;20028;-91
2024/04/11 02:08:50;;;;;;;0.20;0.20;;;11.70;99.90;;;;;;4938330;29;20100;-89
2024/04/11 02:11:20;;;;;;;0.43;0.38;;;11.70;99.90;;;;;;4936357;29;20054;-87
2024/04/11 02:14:00;;;;;;;0.40;0.30;;;11.80;99.90;;;;;;4936694;29;20493;-89
2024/04/11 02:16:34;;;;;;;0.38;0.17;;;11.80;99.90;;;;;;4912149;29;20047;-89
2024/04/11 02:21:52;;;;;;;0.60;0.20;;;11.90;99.90;;;;;;4937735;29;20039;-90
2024/04/11 02:24:18;;;;;;;0.30;0.25;;;11.90;99.90;;;;;;4935896;29;20525;-90
2024/04/11 02:26:52;;;;;;;0.17;0.17;;;11.90;99.90;;;;;;4937036;29;20051;-89
2024/04/11 02:29:21;;;;;;;0.63;0.32;;;11.90;99.90;;;;;;4936104;29;20044;-88
2024/04/11 02:32:02;;;;;;;1.90;0.30;;;11.90;99.90;;;;;;4935722;29;20039;-90
2024/04/11 02:34:32;;;;;;;;;;;11.90;99.90;;;;;;4935642;29;20063;-89
2024/04/11 02:37:14;;;;;;;1.10;0.25;;;11.90;99.90;;;;;;4934481;29;19915;-88
2024/04/11 02:39:46;;;;;;;0.20;0.20;;;11.90;99.90;;;;;;4936867;29;20075;-89
2024/04/11 02:42:19;;;;;;;1.00;0.40;;;11.90;99.90;;;;;;4919938;29;20036;-88
2024/04/11 02:44:52;;;;;;;0.63;0.35;;;12.00;99.90;;;;;;4934531;29;20039;-89
2024/04/11 02:47:22;;;;;;;0.20;0.20;;;12.00;99.90;;;;;;4921207;29;20043;-89
2024/04/11 02:49:59;;;;;;;0.55;0.28;;;12.00;99.90;;;;;;4920029;29;20067;-88
2024/04/11 02:52:28;;;;;;;5.22;0.52;;;12.00;99.90;;;;;;4935669;29;20034;-89
2024/04/11 02:55:31;;;;;;;0.35;0.30;;;12.00;99.90;;;;;;4935609;29;20111;-89
2024/04/11 02:58:01;;;;;;;1.38;0.40;;;12.00;99.90;;;;;;4935788;29;20028;-89
2024/04/11 03:00:33;;;;;;;2.08;0.30;;;12.00;99.90;;;;;;4935513;29;20032;-90
2024/04/11 03:03:00;;;;;;;0.90;0.20;;;11.90;99.90;;;;;;4935583;29;20043;-90
2024/04/11 03:05:36;;;;;;;0.82;0.30;;;12.00;99.90;;;;;;4919611;29;20028;-90
2024/04/11 03:08:04;;;;;;;1.45;0.20;;;12.00;99.90;;;;;;4932890;29;20098;-89
2024/04/11 03:10:29;;;;;;;2.10;0.30;;;11.90;99.90;;;;;;4931920;29;20123;-90
2024/04/11 03:13:01;;;;;;;6.93;0.38;;;11.90;99.90;;;;;;4937362;29;20039;-89
2024/04/11 03:15:30;;;;;;;0.35;0.20;;;11.90;99.90;;;;;;4939310;29;20024;-90
2024/04/11 03:17:58;;;;;;;1.08;0.30;;;11.90;99.90;;;;;;4923393;29;20047;-90
2024/04/11 03:20:36;;;;;;;2.58;0.40;;;12.00;99.90;;;;;;4923224;29;20048;-90
2024/04/11 03:23:12;;;;;;;0.77;0.45;;;12.00;99.90;;;;;;4925768;29;20043;-90
2024/04/11 03:25:56;;;;;;;0.98;0.30;;;12.00;99.90;;;;;;4938046;29;20032;-90
2024/04/11 03:28:28;;;;;;;0.70;0.50;;;12.00;99.90;;;;;;4938910;29;20051;-89
2024/04/11 03:31:05;;;;;;;1.65;0.35;;;12.00;99.90;;;;;;4923733;29;20036;-89
2024/04/11 03:33:40;;;;;;;1.88;0.55;;;12.00;99.90;;;;;;4926765;29;20035;-89
2024/04/11 03:36:15;;;;;;;1.65;0.32;;;12.00;99.90;;;;;;4930946;29;20088;-90
2024/04/11 03:38:44;;;;;;;2.03;0.30;;;12.00;99.90;;;;;;4940263;29;20035;-90
2024/04/11 03:41:30;;;;;;;1.35;0.60;;;12.00;99.90;;;;;;4924774;29;20040;-89
2024/04/11 03:44:09;;;;;;;2.15;0.52;;;12.00;99.90;;;;;;4932928;29;20044;-88
2024/04/11 03:46:39;;;;;;;0.63;0.35;;;11.90;99.90;;;;;;4935852;29;20032;-88
2024/04/11 03:49:14;;;;;;;5.05;0.65;;;11.90;99.90;;;;;;4939991;29;20482;-90
2024/04/11 03:51:49;;;;;;;0.55;0.40;;;11.90;99.90;;;;;;4942685;29;20303;-89
2024/04/11 03:54:22;;;;;;;3.95;0.52;;;11.90;99.90;;;;;;4944126;29;20477;-90
2024/04/11 03:57:44;;;;;;;0.73;0.35;;;11.90;99.90;;;;;;4944070;29;20066;-90
2024/04/11 04:00:24;;;;;;;3.10;0.52;;;11.90;99.90;;;;;;4938340;29;20047;-90
2024/04/11 04:02:53;;;;;;;1.52;0.32;;;11.90;99.90;;;;;;4938032;29;20032;-90
2024/04/11 04:05:22;;;;;;;2.53;0.50;;;11.90;99.90;;;;;;4921720;29;20477;-91
2024/04/11 04:08:00;;;;;;;1.67;0.60;;;11.80;99.90;;;;;;4922586;29;20134;-90
2024/04/11 04:10:26;;;;;;;2.78;0.50;;;11.80;99.90;;;;;;4940577;29;20031;-89
2024/04/11 04:13:09;;;;;;;1.60;0.40;;;11.90;99.90;;;;;;4923248;29;20492;-91
2024/04/11 04:15:37;;;;;;;2.60;0.55;;;11.80;99.90;;;;;;4937761;29;20039;-90
2024/04/11 04:18:11;;;;;;;2.58;0.52;;;11.80;99.90;;;;;;4906659;29;20489;-89
2024/04/11 04:20:44;;;;;;;1.83;0.60;;;11.80;99.90;;;;;;4923500;29;20035;-90
2024/04/11 04:23:13;;;;;;;2.17;0.43;;;11.80;99.90;;;;;;4938632;29;20461;-90
2024/04/11 04:25:48;;;;;;;1.85;0.43;;;11.80;99.90;;;;;;4936908;29;20032;-88
2024/04/11 04:28:18;;;;;;;1.80;0.50;;;11.80;99.90;;;;;;4922382;29;20483;-89
2024/04/11 04:30:44;;;;;;;2.08;0.50;;;11.80;99.90;;;;;;4922385;29;20031;-90
2024/04/11 04:33:13;;;;;;;1.92;0.60;;;11.80;99.90;;;;;;4921013;29;20040;-89
2024/04/11 04:35:42;;;;;;;3.55;0.50;;;11.80;99.90;;;;;;4937961;29;20043;-89
2024/04/11 04:38:08;;;;;;;0.85;0.30;;;11.80;99.90;;;;;;4922166;29;20390;-90
2024/04/11 04:40:35;;;;;;;3.13;0.68;;;11.80;99.90;;;;;;4938109;29;20111;-89
2024/04/11 04:43:08;;;;;;;1.13;0.40;;;11.80;99.90;;;;;;4937039;29;20127;-91
2024/04/11 04:45:46;;;;;;;2.65;0.80;;;11.80;99.90;;;;;;4938226;29;20048;-90
2024/04/11 04:48:14;;;;;;;0.90;0.50;;;11.70;99.90;;;;;;4936324;29;20039;-89
2024/04/11 04:50:44;;;;;;;2.28;0.50;;;11.80;99.90;;;;;;4922102;29;20031;-89
2024/04/11 04:53:18;;;;;;;1.58;0.57;;;11.80;99.90;;;;;;4920955;29;20031;-90
2024/04/11 04:55:47;;;;;;;1.80;0.60;;;11.80;99.90;;;;;;4920677;29;20047;-90
2024/04/11 04:58:18;;;;;;;2.65;0.43;;;11.80;99.90;;;;;;4936848;29;20513;-90
2024/04/11 05:01:10;;;;;;;2.67;0.50;;;11.80;99.90;;;;;;4922828;29;20509;-89
2024/04/11 05:04:13;;;;;;;2.70;0.65;;;11.80;99.90;;;;;;4938490;29;20032;-89
2024/04/11 05:06:58;;;;;;;2.65;0.85;;;11.80;99.90;;;;;;4921362;29;20051;-90
2024/04/11 05:09:28;;;;;;;4.68;0.70;;;11.70;99.90;;;;;;4921475;29;20086;-89
2024/04/11 05:11:58;;;;;;;;;;;11.70;99.90;;;;;;4938636;29;20035;-89
2024/04/11 05:14:31;;;;;;;4.57;0.65;;;11.70;99.90;;;;;;4936690;29;19922;-89
2024/04/11 05:16:58;;;;;;;5.15;1.55;;;11.70;99.90;;;;;;4929326;29;20111;-90
2024/04/11 05:19:31;;;;;;;4.05;0.85;;;11.70;99.90;;;;;;4921289;29;20040;-90
2024/04/11 05:22:00;;;;;;;6.03;1.05;;;11.70;99.90;;;;;;4937971;29;20046;-90
2024/04/11 05:24:30;;;;;;;4.38;0.90;;;11.70;99.90;;;;;;4937110;29;20024;-89
2024/04/11 05:27:11;;;;;;;2.50;0.80;;;11.70;99.90;;;;;;4936522;29;20054;-90
2024/04/11 05:29:58;;;;;;;4.97;0.80;;;11.70;99.90;;;;;;4920111;29;20031;-90
2024/04/11 05:32:29;;;;;;;5.80;1.30;;;11.70;99.90;;;;;;4916289;29;20032;-89
2024/04/11 05:35:06;;;;;;;2.17;0.57;;;11.70;99.90;;;;;;4920380;29;20122;-90
2024/04/11 05:37:34;;;;;;;4.35;1.13;;;11.60;99.90;;;;;;4920121;29;20131;-90
2024/04/11 05:40:14;;;;;;;7.03;1.00;;;11.70;99.90;;;;;;4921099;29;20036;-90
2024/04/11 05:42:49;;;;;;;4.10;0.90;;;11.70;99.90;;;;;;4920720;29;20135;-90
2024/04/11 05:45:37;;;;;;;4.25;0.80;;;11.70;99.90;;;;;;4913391;29;20055;-90
2024/04/11 05:48:17;;;;;;;3.35;1.40;;;11.70;99.90;;;;;;4903287;29;20099;-89
2024/04/11 05:50:50;;;;;;;3.75;0.80;;;11.60;99.90;;;;;;4916789;29;20036;-89
2024/04/11 05:53:27;;;;;;;4.82;0.80;;;11.70;99.90;;;;;;4901960;29;20032;-89
2024/04/11 05:56:10;;;;;;;5.30;0.90;;;11.70;99.90;;;;;;4917948;29;20039;-90
2024/04/11 05:59:01;;;;;;;5.45;0.90;;;11.70;99.90;;;;;;4916835;29;20040;-91
2024/04/11 06:01:50;;;;;;;;;;;11.70;99.90;;;;;;4896077;29;20122;-90
2024/04/11 06:04:25;;;;;;;5.90;0.77;;;11.70;99.90;;;;;;4916108;29;19913;-90
2024/04/11 06:07:01;;;;;;;6.97;1.10;;;11.70;99.90;;;;;;4887322;29;20507;-88
2024/04/11 06:09:37;;;;;;;9.43;1.13;;;11.70;99.90;;;;;;4911235;29;20036;-89
2024/04/11 06:12:11;;;;;;;9.25;1.33;;;11.70;99.90;;;;;;4900861;29;20067;-89
2024/04/11 06:14:38;;;;;;;6.30;1.20;;;11.70;99.90;;;;;;4916405;29;20553;-89
2024/04/11 06:17:27;;;;;;;5.18;0.73;;;11.70;99.90;;;;;;4900276;29;20075;-89
2024/04/11 06:20:01;;;;;;;5.15;1.80;;;11.80;99.90;;;;;;4915467;29;20051;-90
2024/04/11 06:22:42;;;;;;;5.43;1.38;;;11.70;99.90;;;;;;4899130;29;20028;-91
2024/04/11 06:25:11;;;;;;;7.35;1.13;;;11.80;99.90;;;;;;4904541;29;20044;-90
2024/04/11 06:27:40;;;;;;;3.72;1.05;;;11.80;99.90;;;;;;4916098;29;20056;-90
2024/04/11 06:30:12;;;;;;;6.10;1.13;;;11.80;99.90;;;;;;4898374;29;20115;-89
2024/04/11 06:32:40;;;;;;;;;;;11.90;99.90;;;;;;4915084;29;20032;-89
2024/04/11 06:35:14;;;;;;;6.15;1.80;;;11.90;99.90;;;;;;4917098;29;19907;-92
2024/04/11 06:37:44;;;;;;;5.53;1.92;;;11.90;99.90;;;;;;4917672;29;20044;-90
2024/04/11 06:40:33;;;;;;;7.43;1.10;;;11.90;99.90;;;;;;4916373;29;20478;-90
2024/04/11 06:43:03;;;;;;;7.07;1.23;;;11.90;99.90;;;;;;4899903;29;20695;-91
2024/04/11 06:45:50;;;;;;;8.32;1.40;;;12.00;99.90;;;;;;4917825;29;20134;-91
2024/04/11 06:48:30;;;;;;;5.30;1.67;;;12.00;99.90;;;;;;4922384;29;20035;-91
2024/04/11 06:51:09;;;;;;;7.18;1.02;;;12.00;99.90;;;;;;4940760;28;20031;-91
2024/04/11 06:53:47;;;;;;;5.18;0.90;;;12.10;99.90;;;;;;4937841;29;20032;-90
2024/04/11 06:56:39;;;;;;;8.02;1.20;;;12.10;99.90;;;;;;4924458;29;20110;-91
2024/04/11 06:59:10;;;;;;;8.27;0.93;;;12.10;99.90;;;;;;4939040;29;20047;-89
2024/04/11 07:01:38;;;;;;;4.28;0.90;;;12.20;99.90;;;;;;4939618;29;20032;-90
2024/04/11 07:04:06;;;;;;;3.10;0.80;;;12.20;99.90;;;;;;4938229;29;20051;-91
2024/04/11 07:06:35;;;;;;;6.47;0.82;;;12.30;99.90;;;;;;4938561;29;20474;-90
2024/04/11 07:09:03;;;;;;;5.68;1.20;;;12.30;99.90;;;;;;4938920;29;20039;-90
2024/04/11 07:11:40;;;;;;;4.03;0.88;;;12.30;99.90;;;;;;4938034;29;20135;-90
2024/04/11 07:14:31;;;;;;;6.10;1.90;;;12.40;99.90;;;;;;4923417;29;20031;-90
2024/04/11 07:17:11;;;;;;;8.43;1.25;;;12.40;99.90;;;;;;4938647;29;20589;-90
2024/04/11 07:19:42;;;;;;;3.22;1.20;;;12.40;99.90;;;;;;4938280;29;20032;-91
2024/04/11 07:22:18;;;;;;;6.22;1.20;;;12.40;99.90;;;;;;4939470;29;20031;-91
2024/04/11 07:24:45;;;;;;;3.53;0.95;;;12.40;99.90;;;;;;4928142;29;20452;-90
2024/04/11 07:27:18;;;;;;;8.88;1.73;;;12.40;99.90;;;;;;4939359;29;20497;-90
2024/04/11 07:29:45;;;;;;;7.82;1.67;;;12.40;99.90;;;;;;4922965;29;20481;-91
2024/04/11 07:32:13;;;;;;;5.75;1.75;;;12.40;99.90;;;;;;4939822;29;20032;-90
2024/04/11 07:34:53;;;;;;;6.60;2.33;;;12.50;99.90;;;;;;4940277;29;20042;-91
2024/04/11 07:37:25;;;;;;;5.25;1.52;;;12.50;99.90;;;;;;4942022;29;20524;-92
2024/04/11 07:39:53;;;;;;;5.88;1.50;;;12.50;99.90;;;;;;4939938;29;20566;-91
2024/04/11 07:42:47;;;;;;;4.78;1.40;;;12.50;99.90;;;;;;4939821;29;20028;-91
2024/04/11 07:45:17;;;;;;;9.25;1.30;;;12.60;99.90;;;;;;4921129;29;20056;-90
2024/04/11 07:47:58;;;;;;;2.92;1.60;;;12.60;99.90;;;;;;4925063;29;20032;-91
2024/04/11 07:50:27;;;;;;;3.53;0.82;;;12.70;99.90;;;;;;4939599;29;20047;-91
2024/04/11 07:52:57;;;;;;;7.07;2.10;;;12.70;99.90;;;;;;4937965;29;20028;-91
2024/04/11 07:55:29;;;;;;;6.55;1.48;;;12.70;99.90;;;;;;4939071;29;20519;-90
2024/04/11 07:57:58;;;;;;;7.85;1.17;;;12.80;99.90;;;;;;4937708;29;20033;-89
2024/04/11 08:00:27;;;;;;;6.65;1.30;;;12.80;99.90;;;;;;4937695;29;20131;-90
2024/04/11 08:03:17;;;;;;;3.72;1.20;;;12.90;99.90;;;;;;4954186;29;20028;-90
2024/04/11 08:05:50;;;;;;;5.78;1.08;;;12.90;99.90;;;;;;4937863;29;20046;-90
2024/04/11 08:08:20;;;;;;;3.45;1.15;;;12.90;99.90;;;;;;4939794;29;20032;-93
2024/04/11 08:11:02;;;;;;;7.00;1.67;;;13.00;99.90;;;;;;4906825;29;20032;-90
2024/04/11 08:13:34;;;;;;;12.00;1.60;;;13.10;99.90;;;;;;4933762;29;20051;-90
2024/04/11 08:16:18;;;;;;;9.38;1.85;;;13.10;99.90;;;;;;4931869;29;20119;-91
2024/04/11 08:18:45;;;;;;;7.32;1.52;;;13.20;99.90;;;;;;4934672;29;20024;-91
2024/04/11 08:21:24;;;;;;;6.50;1.50;;;13.20;99.90;;;;;;4938680;29;20035;-90
2024/04/11 08:24:03;;;;;;;9.05;1.30;;;13.30;99.90;;;;;;4934380;29;20034;-90
2024/04/11 08:26:29;;;;;;;6.65;1.48;;;13.30;99.90;;;;;;4934850;29;20109;-90
2024/04/11 08:29:00;;;;;;;6.78;1.50;;;13.40;99.90;;;;;;4935870;29;20024;-93
2024/04/11 08:31:32;;;;;;;5.90;1.13;;;13.40;99.90;;;;;;4918524;29;20042;-92
2024/04/11 08:33:58;;;;;;;11.98;1.60;;;13.50;99.90;;;;;;4943284;29;20083;-89
2024/04/11 08:36:32;;;;;;;9.80;1.50;;;13.60;99.90;;;;;;4942876;29;20081;-92
2024/04/11 08:39:04;;;;;;;9.35;1.80;;;13.70;99.90;;;;;;4952456;29;20505;-92
2024/04/11 08:42:12;;;;;;;;;;;;;;;;;;;;;
2024/04/11 08:44:43;;;;;;;7.60;1.33;;;14.00;99.90;;;;;;4855449;29;20702;-91
2024/04/11 08:47:34;;;;;;;;;;;14.10;99.90;;;;;;4875514;29;20037;-92
2024/04/11 08:50:00;;;;;;;13.90;2.03;;;14.20;99.90;;;;;;4878159;29;19919;-91
2024/04/11 08:52:36;;;;;;;8.75;1.60;;;14.30;99.90;;;;;;4868975;29;20475;-92
2024/04/11 08:55:11;;;;;;;12.85;2.47;;;14.30;99.90;;;;;;4860724;29;20033;-92
2024/04/11 08:57:37;;;;;;;9.57;1.85;;;14.40;99.90;;;;;;4879808;29;20044;-94
2024/04/11 09:00:12;;;;;;;13.98;2.15;;;14.40;99.90;;;;;;4863546;29;20048;-94
2024/04/11 09:02:46;;;;;;;8.48;2.13;;;14.50;99.90;;;;;;4861914;29;20904;-93
2024/04/11 09:05:14;;;;;;;9.25;1.60;;;14.50;99.90;;;;;;4875310;29;20125;-91
2024/04/11 09:07:44;;;;;;;8.65;1.83;;;14.60;99.90;;;;;;4871129;29;20025;-91
2024/04/11 09:10:14;;;;;;;;;;;14.60;99.90;;;;;;4859064;29;20022;-92
2024/04/11 09:12:47;;;;;;;6.47;1.25;;;14.70;99.90;;;;;;4871730;29;19915;-93
2024/04/11 09:15:21;;;;;;;6.50;1.20;;;14.70;99.90;;;;;;4857719;29;20088;-91
2024/04/11 09:17:47;;;;;;;5.35;1.55;;;14.70;99.90;;;;;;4862648;29;20017;-92
2024/04/11 09:20:15;;;;;;;7.40;1.50;;;14.70;99.90;;;;;;4870600;29;20423;-92
2024/04/11 09:22:50;;;;;;;7.22;1.55;;;14.80;99.90;;;;;;4867278;29;20089;-94
2024/04/11 09:25:17;;;;;;;5.88;2.00;;;14.80;99.90;;;;;;4863576;29;20082;-93
2024/04/11 09:27:50;;;;;;;6.10;1.80;;;14.80;99.90;;;;;;4876483;29;20055;-91
2024/04/11 09:30:21;;;;;;;7.22;1.83;;;14.90;99.90;;;;;;4933428;29;20131;-91
2024/04/11 09:32:54;;;;;;;5.63;1.63;;;14.90;99.90;;;;;;4930871;29;20032;-91
2024/04/11 09:35:28;;;;;;;9.10;1.60;;;15.00;99.90;;;;;;4933290;29;20505;-94
2024/04/11 09:37:59;;;;;;;8.90;1.52;;;15.10;99.90;;;;;;4928140;29;20036;-91
2024/04/11 09:40:33;;;;;;;4.88;1.20;;;15.20;99.90;;;;;;4923659;29;20032;-92
2024/04/11 09:43:07;;;;;;;7.78;1.30;;;15.30;99.90;;;;;;4935105;29;20039;-92
2024/04/11 09:46:04;;;;;;;5.88;1.30;;;15.40;99.90;;;;;;4916383;29;20060;-92
2024/04/11 09:48:31;;;;;;;6.90;1.83;;;15.50;99.90;;;;;;4915700;29;20031;-94
2024/04/11 09:50:59;;;;;;;8.43;1.75;;;15.60;99.90;;;;;;4935045;29;20038;-95
2024/04/11 09:53:28;;;;;;;10.77;1.30;;;15.70;99.90;;;;;;4937170;29;20035;-92
2024/04/11 09:55:59;;;;;;;8.10;1.48;;;15.80;99.90;;;;;;4912984;29;20028;-93
2024/04/11 09:58:41;;;;;;;7.47;0.98;;;15.80;99.90;;;;;;4915996;29;20504;-91
2024/04/11 10:01:29;;;;;;;10.75;1.73;;;15.90;99.90;;;;;;4926253;29;20633;-92
2024/04/11 10:04:11;;;;;;;6.07;1.30;;;16.00;99.90;;;;;;4932965;29;20488;-91
2024/04/11 10:06:41;;;;;;;8.65;1.90;;;16.00;99.90;;;;;;4935052;29;20078;-92
2024/04/11 10:09:20;;;;;;;4.35;1.40;;;16.00;99.90;;;;;;4935435;29;20023;-93
2024/04/11 10:11:55;;;;;;;7.63;1.85;;;16.00;99.90;;;;;;4936753;29;20391;-93
2024/04/11 10:14:28;;;;;;;10.00;1.85;;;16.10;99.90;;;;;;4938428;29;20090;-92
2024/04/11 10:17:07;;;;;;;7.90;1.45;;;16.10;99.90;;;;;;4940549;29;20059;-93
2024/04/11 10:19:43;;;;;;;9.35;2.00;;;16.10;99.90;;;;;;4939924;29;20036;-92
2024/04/11 10:22:15;;;;;;;6.38;1.58;;;16.00;99.90;;;;;;4913998;29;20055;-91
2024/04/11 10:24:49;;;;;;;8.43;1.42;;;16.00;99.90;;;;;;4935158;29;20106;-90
2024/04/11 10:27:18;;;;;;;6.85;1.60;;;16.00;99.90;;;;;;4934574;29;20039;-91
2024/04/11 10:29:46;;;;;;;10.45;2.08;;;16.00;99.90;;;;;;4934258;29;20027;-91
2024/04/11 10:32:14;;;;;;;6.32;1.50;;;16.10;99.90;;;;;;4934579;29;20257;-90
2024/04/11 10:34:56;;;;;;;9.98;1.40;;;16.10;99.90;;;;;;4934024;29;20123;-91
2024/04/11 10:37:23;;;;;;;8.88;1.58;;;16.10;99.90;;;;;;4934325;29;20132;-91
2024/04/11 10:40:24;;;;;;;9.75;1.73;;;16.10;99.90;;;;;;4936426;29;20039;-93
2024/04/11 10:45:38;;;;;;;10.55;2.30;;;16.20;99.90;;;;;;4937184;29;20082;-91
2024/04/11 10:48:09;;;;;;;9.35;1.63;;;16.30;99.90;;;;;;4918790;29;20038;-93
2024/04/11 10:50:35;;;;;;;6.70;1.35;;;16.30;99.90;;;;;;4936434;29;20381;-92
2024/04/11 10:53:04;;;;;;;12.85;1.92;;;16.40;99.90;;;;;;4919103;29;20032;-93
2024/04/11 10:55:43;;;;;;;4.93;1.45;;;16.40;99.90;;;;;;4921781;29;20034;-92
2024/04/11 10:58:13;;;;;;;6.82;1.67;;;16.50;99.90;;;;;;4935085;29;20032;-93
2024/04/11 11:01:08;;;;;;;10.57;2.13;;;16.70;99.90;;;;;;4935870;29;20663;-92
2024/04/11 11:06:25;;;;;;;10.88;1.65;;;17.20;99.90;;;;;;4925670;29;20095;-93
2024/04/11 11:09:20;;;;;;;5.93;1.52;;;17.60;99.90;;;;;;4935936;29;20390;-91
2024/04/11 11:11:54;;;;;;;7.97;1.55;;;17.80;99.90;;;;;;4937666;29;20500;-91
2024/04/11 11:14:28;;;;;;;7.70;2.17;;;18.10;99.90;;;;;;4920367;29;20120;-92
2024/04/11 11:17:07;;;;;;;6.43;1.25;;;18.30;99.90;;;;;;4935957;29;20024;-94
2024/04/11 11:19:34;;;;;;;8.93;2.42;;;18.30;99.90;;;;;;4919871;29;20047;-92
2024/04/11 11:22:00;;;;;;;5.05;1.50;;;18.30;99.90;;;;;;4927228;29;20034;-93
2024/04/11 11:24:34;;;;;;;5.55;1.58;;;18.30;99.90;;;;;;4935754;29;20087;-92
2024/04/11 11:27:08;;;;;;;5.97;1.40;;;18.20;99.90;;;;;;4934832;29;20027;-94
2024/04/11 11:29:36;;;;;;;8.75;1.73;;;18.00;99.90;;;;;;4935232;29;20032;-92
2024/04/11 11:32:04;;;;;;;7.18;1.55;;;18.00;99.90;;;;;;4935076;29;20028;-92
2024/04/11 11:34:43;;;;;;;3.55;1.00;;;17.90;99.90;;;;;;4934864;29;20035;-91
2024/04/11 11:37:12;;;;;;;8.80;1.48;;;17.80;99.90;;;;;;4932506;29;20051;-93
2024/04/11 11:39:49;;;;;;;6.18;1.38;;;17.80;99.90;;;;;;4921691;29;20504;-92
2024/04/11 11:42:27;;;;;;;7.68;1.40;;;17.70;99.90;;;;;;4932615;29;20028;-92
2024/04/11 11:47:33;;;;;;;8.50;1.48;;;17.90;99.90;;;;;;4928999;29;20055;-92
2024/04/11 11:50:35;;;;;;;7.13;1.48;;;17.90;99.90;;;;;;4928917;29;20086;-90
2024/04/11 11:53:24;;;;;;;5.90;1.20;;;18.20;99.90;;;;;;4917877;29;20059;-92
2024/04/11 11:55:57;;;;;;;5.43;1.33;;;18.30;99.90;;;;;;4933326;29;20028;-92
2024/04/11 11:58:24;;;;;;;3.67;1.00;;;18.40;99.90;;;;;;4938579;29;20060;-92
2024/04/11 12:00:58;;;;;;;7.35;1.73;;;18.40;99.90;;;;;;4922179;29;20127;-91
2024/04/11 12:03:30;;;;;;;4.57;1.20;;;18.50;99.90;;;;;;4911063;29;20047;-93
2024/04/11 12:06:00;;;;;;;5.60;1.33;;;18.40;99.90;;;;;;4924080;29;20102;-92
2024/04/11 12:08:32;;;;;;;3.83;1.40;;;18.40;99.60;;;;;;4933610;29;20035;-92
2024/04/11 12:13:31;;;;;;;11.00;1.60;;;18.60;99.50;;;;;;4939787;29;20028;-93
2024/04/11 12:15:58;;;;;;;5.18;1.42;;;18.80;98.90;;;;;;4938738;29;20119;-93
2024/04/11 12:18:24;;;;;;;5.72;1.65;;;19.00;98.50;;;;;;4938452;29;20055;-91
2024/04/11 12:20:57;;;;;;;5.07;1.20;;;19.30;97.80;;;;;;4937938;29;20118;-91
2024/04/11 12:23:30;;;;;;;8.35;1.75;;;19.70;97.30;;;;;;4937873;29;20028;-91
2024/04/11 12:25:57;;;;;;;6.55;1.30;;;20.00;96.40;;;;;;4922033;29;20027;-91
2024/04/11 12:28:26;;;;;;;11.70;2.45;;;20.00;94.60;;;;;;4936093;29;20520;-91
2024/04/11 12:31:07;;;;;;;5.72;1.42;;;19.90;94.00;;;;;;4922338;29;20216;-92
2024/04/11 12:33:34;;;;;;;6.53;1.45;;;19.70;93.90;;;;;;4919030;29;20134;-93
2024/04/11 12:39:03;;;;;;;;;;;19.60;94.30;;;;;;4907215;29;20036;-92
2024/04/11 12:41:29;;;;;;;5.78;1.80;;;19.60;94.50;;;;;;4897643;29;20400;-92
2024/04/11 12:43:57;;;;;;;7.22;1.98;;;19.80;94.80;;;;;;4881648;29;20193;-94
2024/04/11 12:46:56;;;;;;;8.18;2.45;;;19.90;94.70;;;;;;4898735;29;20037;-93
2024/04/11 12:49:28;;;;;;;8.27;1.65;;;19.80;93.90;;;;;;4899968;29;20053;-93
2024/04/11 12:52:00;;;;;;;6.32;1.40;;;19.60;93.50;;;;;;4886617;29;21505;-94
2024/04/11 12:54:29;;;;;;;11.55;2.03;;;19.40;93.60;;;;;;4902316;29;20051;-93
2024/04/11 12:57:10;;;;;;;6.82;1.60;;;19.20;93.30;;;;;;4899983;29;20418;-90
2024/04/11 12:59:39;;;;;;;9.38;1.80;;;19.20;93.40;;;;;;4899790;29;20040;-93
2024/04/11 13:02:08;;;;;;;10.90;1.52;;;19.10;93.40;;;;;;4899397;29;20148;-91
2024/04/11 13:04:36;;;;;;;8.88;1.67;;;19.00;93.70;;;;;;4898962;29;20024;-90
2024/04/11 13:07:10;;;;;;;5.63;1.40;;;19.00;93.80;;;;;;4898776;29;20029;-92
2024/04/11 13:09:56;;;;;;;7.47;1.40;;;19.00;94.10;;;;;;4898938;29;20044;-92
2024/04/11 13:12:22;;;;;;;8.93;1.63;;;19.10;94.30;;;;;;4885867;29;20029;-90
2024/04/11 13:17:51;;;;;;;7.32;2.33;;;19.40;94.90;;;;;;4938718;29;20041;-92
2024/04/11 13:20:27;;;;;;;11.10;2.03;;;19.50;94.50;;;;;;4921789;29;20516;-92
2024/04/11 13:23:09;;;;;;;11.02;2.50;;;19.60;93.80;;;;;;4936385;29;20031;-93
2024/04/11 13:25:42;;;;;;;7.90;1.65;;;19.60;93.70;;;;;;4934028;29;20052;-92
2024/04/11 13:28:13;;;;;;;15.70;2.28;;;19.50;93.40;;;;;;4944476;29;20039;-92
2024/04/11 13:30:46;;;;;;;11.50;1.85;;;19.40;93.70;;;;;;4942665;29;20089;-95
2024/04/11 13:33:16;;;;;;;5.85;1.75;;;19.40;94.00;;;;;;4928986;29;20043;-93
2024/04/11 13:35:52;;;;;;;6.45;1.65;;;19.50;94.30;;;;;;4937336;29;20028;-93
2024/04/11 13:38:23;;;;;;;14.02;2.13;;;19.70;94.10;;;;;;4936676;29;20039;-93
2024/04/11 13:43:50;;;;;;;5.88;1.35;;;19.90;93.90;;;;;;4945011;29;20027;-95
2024/04/11 13:46:19;;;;;;;10.68;2.22;;;19.80;92.80;;;;;;4945802;29;20051;-95